sensor_id;sensor_type;location;lat;lon;timestamp;pressure;altitude;pressure_sealevel;temperature
28803;BMP280;15949;55.656;37.422;2022-08-06T00:04:42;99990.88;;;18.10
28803;BMP280;15949;55.656;37.422;2022-08-06T00:09:48;99988.50;;;18.17
28803;BMP280;15949;55.656;37.422;2022-08-06T00:14:53;99991.31;;;18.23
28803;BMP280;15949;55.656;37.422;2022-08-06T00:19:59;99990.56;;;18.23
28803;BMP280;15949;55.656;37.422;2022-08-06T00:25:04;99988.31;;;18.21
28803;BMP280;15949;55.656;37.422;2022-08-06T00:30:11;99994.38;;;18.16
28803;BMP280;15949;55.656;37.422;2022-08-06T00:35:16;99990.13;;;18.09
28803;BMP280;15949;55.656;37.422;2022-08-06T00:40:22;99990.03;;;18.04
28803;BMP280;15949;55.656;37.422;2022-08-06T00:45:29;99986.22;;;17.96
28803;BMP280;15949;55.656;37.422;2022-08-06T00:50:38;99996.44;;;17.91
28803;BMP280;15949;55.656;37.422;2022-08-06T00:55:43;99991.72;;;17.86
28803;BMP280;15949;55.656;37.422;2022-08-06T01:00:49;99992.41;;;17.81
28803;BMP280;15949;55.656;37.422;2022-08-06T01:05:55;99992.09;;;17.79
28803;BMP280;15949;55.656;37.422;2022-08-06T01:11:00;99989.16;;;17.77
28803;BMP280;15949;55.656;37.422;2022-08-06T01:16:21;99997.56;;;17.70
28803;BMP280;15949;55.656;37.422;2022-08-06T01:27:29;99996.00;;;17.63
28803;BMP280;15949;55.656;37.422;2022-08-06T01:32:43;100000.19;;;17.64
28803;BMP280;15949;55.656;37.422;2022-08-06T01:42:58;100002.41;;;17.66
28803;BMP280;15949;55.656;37.422;2022-08-06T01:48:11;100000.75;;;17.69
28803;BMP280;15949;55.656;37.422;2022-08-06T01:53:23;100005.66;;;17.70
28803;BMP280;15949;55.656;37.422;2022-08-06T01:58:36;100006.50;;;17.76
28803;BMP280;15949;55.656;37.422;2022-08-06T02:03:47;100004.94;;;17.84
28803;BMP280;15949;55.656;37.422;2022-08-06T02:08:55;100005.47;;;17.88
28803;BMP280;15949;55.656;37.422;2022-08-06T02:14:03;100001.84;;;17.91
28803;BMP280;15949;55.656;37.422;2022-08-06T02:19:12;100009.00;;;17.95
28803;BMP280;15949;55.656;37.422;2022-08-06T02:24:19;100011.03;;;18.00
28803;BMP280;15949;55.656;37.422;2022-08-06T02:29:27;100013.53;;;18.03
28803;BMP280;15949;55.656;37.422;2022-08-06T02:34:33;100016.81;;;18.07
28803;BMP280;15949;55.656;37.422;2022-08-06T02:39:43;100018.84;;;18.12
28803;BMP280;15949;55.656;37.422;2022-08-06T02:50:05;100021.63;;;18.18
28803;BMP280;15949;55.656;37.422;2022-08-06T02:55:17;100011.38;;;18.22
28803;BMP280;15949;55.656;37.422;2022-08-06T03:00:24;100012.75;;;18.32
28803;BMP280;15949;55.656;37.422;2022-08-06T03:05:31;100019.34;;;18.46
28803;BMP280;15949;55.656;37.422;2022-08-06T03:10:37;100012.41;;;18.60
28803;BMP280;15949;55.656;37.422;2022-08-06T03:15:43;100002.69;;;18.68
28803;BMP280;15949;55.656;37.422;2022-08-06T03:20:50;100014.50;;;18.91
28803;BMP280;15949;55.656;37.422;2022-08-06T03:25:57;100018.41;;;19.10
28803;BMP280;15949;55.656;37.422;2022-08-06T03:31:03;100016.69;;;19.33
28803;BMP280;15949;55.656;37.422;2022-08-06T03:36:10;100004.13;;;19.56
28803;BMP280;15949;55.656;37.422;2022-08-06T03:41:16;100005.31;;;19.81
28803;BMP280;15949;55.656;37.422;2022-08-06T03:46:43;100006.69;;;19.97
28803;BMP280;15949;55.656;37.422;2022-08-06T03:51:53;100009.97;;;20.18
28803;BMP280;15949;55.656;37.422;2022-08-06T03:57:09;100008.56;;;20.28
28803;BMP280;15949;55.656;37.422;2022-08-06T04:02:16;100015.03;;;20.36
28803;BMP280;15949;55.656;37.422;2022-08-06T04:07:23;100018.75;;;20.50
28803;BMP280;15949;55.656;37.422;2022-08-06T04:12:30;100013.66;;;20.63
28803;BMP280;15949;55.656;37.422;2022-08-06T04:17:38;100021.13;;;20.80
28803;BMP280;15949;55.656;37.422;2022-08-06T04:22:44;100016.22;;;20.89
28803;BMP280;15949;55.656;37.422;2022-08-06T04:27:50;100015.50;;;21.00
28803;BMP280;15949;55.656;37.422;2022-08-06T04:32:56;100018.75;;;21.10
28803;BMP280;15949;55.656;37.422;2022-08-06T04:38:03;100013.34;;;21.21
28803;BMP280;15949;55.656;37.422;2022-08-06T04:43:10;100019.03;;;21.40
28803;BMP280;15949;55.656;37.422;2022-08-06T04:48:18;100018.81;;;21.54
28803;BMP280;15949;55.656;37.422;2022-08-06T04:53:24;100007.69;;;21.64
28803;BMP280;15949;55.656;37.422;2022-08-06T04:58:30;100014.34;;;21.74
28803;BMP280;15949;55.656;37.422;2022-08-06T05:03:36;100008.19;;;21.85
28803;BMP280;15949;55.656;37.422;2022-08-06T05:08:43;100003.22;;;22.00
28803;BMP280;15949;55.656;37.422;2022-08-06T05:13:57;99999.97;;;22.13
28803;BMP280;15949;55.656;37.422;2022-08-06T05:19:07;100007.34;;;22.29
28803;BMP280;15949;55.656;37.422;2022-08-06T05:24:14;100009.22;;;22.56
28803;BMP280;15949;55.656;37.422;2022-08-06T05:29:21;100009.00;;;22.90
28803;BMP280;15949;55.656;37.422;2022-08-06T05:34:29;100007.44;;;23.06
28803;BMP280;15949;55.656;37.422;2022-08-06T05:39:34;99999.38;;;23.25
28803;BMP280;15949;55.656;37.422;2022-08-06T05:44:40;100004.19;;;23.43
28803;BMP280;15949;55.656;37.422;2022-08-06T05:49:49;100005.09;;;23.51
28803;BMP280;15949;55.656;37.422;2022-08-06T05:55:27;99999.78;;;23.64
28803;BMP280;15949;55.656;37.422;2022-08-06T06:00:34;100011.22;;;23.82
28803;BMP280;15949;55.656;37.422;2022-08-06T06:05:41;99999.63;;;24.00
28803;BMP280;15949;55.656;37.422;2022-08-06T06:10:48;100001.31;;;24.28
28803;BMP280;15949;55.656;37.422;2022-08-06T06:16:01;99993.06;;;24.52
28803;BMP280;15949;55.656;37.422;2022-08-06T06:21:30;100001.78;;;24.83
28803;BMP280;15949;55.656;37.422;2022-08-06T06:26:49;99996.25;;;24.88
28803;BMP280;15949;55.656;37.422;2022-08-06T06:32:03;99998.91;;;24.94
28803;BMP280;15949;55.656;37.422;2022-08-06T06:42:25;99980.44;;;25.32
28803;BMP280;15949;55.656;37.422;2022-08-06T06:47:54;99983.03;;;25.51
28803;BMP280;15949;55.656;37.422;2022-08-06T06:53:01;99985.56;;;25.75
28803;BMP280;15949;55.656;37.422;2022-08-06T07:03:17;99994.38;;;26.08
28803;BMP280;15949;55.656;37.422;2022-08-06T07:08:26;99996.13;;;26.18
28803;BMP280;15949;55.656;37.422;2022-08-06T07:13:32;99990.09;;;26.33
28803;BMP280;15949;55.656;37.422;2022-08-06T07:18:38;99976.34;;;26.60
28803;BMP280;15949;55.656;37.422;2022-08-06T07:23:45;99978.53;;;26.82
28803;BMP280;15949;55.656;37.422;2022-08-06T07:28:51;99970.53;;;27.05
28803;BMP280;15949;55.656;37.422;2022-08-06T07:33:59;99969.50;;;27.16
28803;BMP280;15949;55.656;37.422;2022-08-06T07:39:08;99978.00;;;27.33
28803;BMP280;15949;55.656;37.422;2022-08-06T07:44:15;99967.09;;;27.41
28803;BMP280;15949;55.656;37.422;2022-08-06T07:49:23;99966.69;;;27.73
28803;BMP280;15949;55.656;37.422;2022-08-06T07:54:30;99966.56;;;27.86
28803;BMP280;15949;55.656;37.422;2022-08-06T07:59:36;99970.66;;;28.08
28803;BMP280;15949;55.656;37.422;2022-08-06T08:04:42;99959.69;;;28.15
28803;BMP280;15949;55.656;37.422;2022-08-06T08:10:07;99958.44;;;28.32
28803;BMP280;15949;55.656;37.422;2022-08-06T08:15:12;99961.56;;;28.51
28803;BMP280;15949;55.656;37.422;2022-08-06T08:20:18;99961.59;;;28.74
28803;BMP280;15949;55.656;37.422;2022-08-06T08:25:24;99964.47;;;28.84
28803;BMP280;15949;55.656;37.422;2022-08-06T08:30:30;99957.72;;;28.92
28803;BMP280;15949;55.656;37.422;2022-08-06T08:35:36;99953.13;;;29.02
28803;BMP280;15949;55.656;37.422;2022-08-06T08:40:41;99956.00;;;29.20
28803;BMP280;15949;55.656;37.422;2022-08-06T08:45:49;99951.91;;;29.36
28803;BMP280;15949;55.656;37.422;2022-08-06T08:50:58;99955.91;;;29.50
28803;BMP280;15949;55.656;37.422;2022-08-06T08:56:05;99957.84;;;29.65
28803;BMP280;15949;55.656;37.422;2022-08-06T09:01:11;99952.97;;;29.88
28803;BMP280;15949;55.656;37.422;2022-08-06T09:06:18;99951.31;;;29.85
28803;BMP280;15949;55.656;37.422;2022-08-06T09:11:25;99953.16;;;29.83
28803;BMP280;15949;55.656;37.422;2022-08-06T09:16:32;99944.28;;;30.00
28803;BMP280;15949;55.656;37.422;2022-08-06T09:21:38;99942.63;;;30.29
28803;BMP280;15949;55.656;37.422;2022-08-06T09:32:09;99936.13;;;30.09
28803;BMP280;15949;55.656;37.422;2022-08-06T09:37:27;99937.94;;;30.57
28803;BMP280;15949;55.656;37.422;2022-08-06T09:42:40;99941.72;;;30.69
28803;BMP280;15949;55.656;37.422;2022-08-06T09:48:00;99927.66;;;30.82
28803;BMP280;15949;55.656;37.422;2022-08-06T09:53:06;99918.16;;;31.10
28803;BMP280;15949;55.656;37.422;2022-08-06T09:58:12;99911.03;;;31.34
28803;BMP280;15949;55.656;37.422;2022-08-06T10:03:17;99926.22;;;31.25
28803;BMP280;15949;55.656;37.422;2022-08-06T10:08:27;99918.31;;;30.43
28803;BMP280;15949;55.656;37.422;2022-08-06T10:13:33;99916.78;;;30.49
28803;BMP280;15949;55.656;37.422;2022-08-06T10:18:41;99921.22;;;30.79
28803;BMP280;15949;55.656;37.422;2022-08-06T10:23:48;99904.78;;;31.24
28803;BMP280;15949;55.656;37.422;2022-08-06T10:28:54;99894.09;;;31.64
28803;BMP280;15949;55.656;37.422;2022-08-06T10:34:15;99894.63;;;31.90
28803;BMP280;15949;55.656;37.422;2022-08-06T10:39:26;99890.47;;;31.62
28803;BMP280;15949;55.656;37.422;2022-08-06T10:44:34;99873.47;;;31.92
28803;BMP280;15949;55.656;37.422;2022-08-06T10:49:41;99871.34;;;32.10
28803;BMP280;15949;55.656;37.422;2022-08-06T10:54:47;99868.47;;;32.47
28803;BMP280;15949;55.656;37.422;2022-08-06T10:59:53;99864.09;;;32.63
28803;BMP280;15949;55.656;37.422;2022-08-06T11:05:07;99865.69;;;32.37
28803;BMP280;15949;55.656;37.422;2022-08-06T11:15:44;99869.38;;;30.76
28803;BMP280;15949;55.656;37.422;2022-08-06T11:20:51;99850.03;;;31.64
28803;BMP280;15949;55.656;37.422;2022-08-06T11:26:00;99853.22;;;32.55
28803;BMP280;15949;55.656;37.422;2022-08-06T11:31:07;99838.53;;;32.92
28803;BMP280;15949;55.656;37.422;2022-08-06T11:36:26;99833.53;;;33.00
28803;BMP280;15949;55.656;37.422;2022-08-06T11:41:43;99833.59;;;33.21
28803;BMP280;15949;55.656;37.422;2022-08-06T11:47:11;99828.06;;;33.31
28803;BMP280;15949;55.656;37.422;2022-08-06T11:57:43;99815.25;;;33.35
28803;BMP280;15949;55.656;37.422;2022-08-06T12:02:51;99820.50;;;33.31
28803;BMP280;15949;55.656;37.422;2022-08-06T12:13:51;99802.34;;;33.28
28803;BMP280;15949;55.656;37.422;2022-08-06T12:18:58;99795.94;;;33.35
28803;BMP280;15949;55.656;37.422;2022-08-06T12:24:04;99797.44;;;33.48
28803;BMP280;15949;55.656;37.422;2022-08-06T12:29:09;99797.22;;;33.65
28803;BMP280;15949;55.656;37.422;2022-08-06T12:34:25;99796.78;;;33.59
28803;BMP280;15949;55.656;37.422;2022-08-06T12:39:38;99784.22;;;33.46
28803;BMP280;15949;55.656;37.422;2022-08-06T12:45:03;99781.13;;;33.52
28803;BMP280;15949;55.656;37.422;2022-08-06T12:50:19;99774.97;;;33.63
28803;BMP280;15949;55.656;37.422;2022-08-06T12:55:25;99779.78;;;33.63
28803;BMP280;15949;55.656;37.422;2022-08-06T13:00:31;99775.53;;;33.62
28803;BMP280;15949;55.656;37.422;2022-08-06T13:05:37;99776.75;;;33.80
28803;BMP280;15949;55.656;37.422;2022-08-06T13:10:54;99771.34;;;33.82
28803;BMP280;15949;55.656;37.422;2022-08-06T13:16:09;99754.53;;;33.78
28803;BMP280;15949;55.656;37.422;2022-08-06T13:21:16;99752.03;;;33.82
28803;BMP280;15949;55.656;37.422;2022-08-06T13:26:27;99752.94;;;33.75
28803;BMP280;15949;55.656;37.422;2022-08-06T13:31:39;99745.56;;;33.68
28803;BMP280;15949;55.656;37.422;2022-08-06T13:36:53;99740.72;;;33.35
28803;BMP280;15949;55.656;37.422;2022-08-06T13:47:21;99719.72;;;33.63
28803;BMP280;15949;55.656;37.422;2022-08-06T13:52:31;99724.72;;;33.55
28803;BMP280;15949;55.656;37.422;2022-08-06T13:57:36;99718.88;;;33.39
28803;BMP280;15949;55.656;37.422;2022-08-06T14:02:42;99715.19;;;33.25
28803;BMP280;15949;55.656;37.422;2022-08-06T14:07:48;99712.09;;;33.31
28803;BMP280;15949;55.656;37.422;2022-08-06T14:12:53;99710.91;;;33.34
28803;BMP280;15949;55.656;37.422;2022-08-06T14:18:19;99713.28;;;33.28
28803;BMP280;15949;55.656;37.422;2022-08-06T14:23:25;99711.22;;;32.25
28803;BMP280;15949;55.656;37.422;2022-08-06T14:28:30;99704.50;;;32.28
28803;BMP280;15949;55.656;37.422;2022-08-06T14:33:36;99700.72;;;32.34
28803;BMP280;15949;55.656;37.422;2022-08-06T14:38:42;99697.19;;;32.62
28803;BMP280;15949;55.656;37.422;2022-08-06T14:43:50;99702.78;;;32.74
28803;BMP280;15949;55.656;37.422;2022-08-06T14:49:15;99696.19;;;32.88
28803;BMP280;15949;55.656;37.422;2022-08-06T14:54:20;99696.66;;;32.35
28803;BMP280;15949;55.656;37.422;2022-08-06T14:59:26;99692.81;;;31.80
28803;BMP280;15949;55.656;37.422;2022-08-06T15:04:31;99693.47;;;31.51
28803;BMP280;15949;55.656;37.422;2022-08-06T15:09:37;99690.59;;;31.49
28803;BMP280;15949;55.656;37.422;2022-08-06T15:14:43;99680.63;;;31.83
28803;BMP280;15949;55.656;37.422;2022-08-06T15:19:48;99691.41;;;31.23
28803;BMP280;15949;55.656;37.422;2022-08-06T15:24:57;99691.06;;;30.45
28803;BMP280;15949;55.656;37.422;2022-08-06T15:30:03;99685.53;;;30.01
28803;BMP280;15949;55.656;37.422;2022-08-06T15:35:08;99688.91;;;29.75
28803;BMP280;15949;55.656;37.422;2022-08-06T15:40:14;99684.84;;;29.58
28803;BMP280;15949;55.656;37.422;2022-08-06T15:45:20;99694.59;;;29.52
28803;BMP280;15949;55.656;37.422;2022-08-06T15:50:26;99691.19;;;29.44
28803;BMP280;15949;55.656;37.422;2022-08-06T15:55:31;99689.31;;;28.96
28803;BMP280;15949;55.656;37.422;2022-08-06T16:00:39;99680.78;;;28.85
28803;BMP280;15949;55.656;37.422;2022-08-06T16:05:45;99677.91;;;28.83
28803;BMP280;15949;55.656;37.422;2022-08-06T16:10:50;99682.00;;;28.66
28803;BMP280;15949;55.656;37.422;2022-08-06T16:15:56;99676.28;;;28.24
28803;BMP280;15949;55.656;37.422;2022-08-06T16:21:02;99677.66;;;27.93
28803;BMP280;15949;55.656;37.422;2022-08-06T16:26:08;99679.66;;;27.69
28803;BMP280;15949;55.656;37.422;2022-08-06T16:31:14;99688.59;;;27.39
28803;BMP280;15949;55.656;37.422;2022-08-06T16:36:19;99684.69;;;27.12
28803;BMP280;15949;55.656;37.422;2022-08-06T16:41:25;99701.97;;;26.91
28803;BMP280;15949;55.656;37.422;2022-08-06T16:46:31;99703.19;;;26.75
28803;BMP280;15949;55.656;37.422;2022-08-06T16:51:36;99707.16;;;26.66
28803;BMP280;15949;55.656;37.422;2022-08-06T16:56:42;99705.97;;;26.47
28803;BMP280;15949;55.656;37.422;2022-08-06T17:01:48;99719.03;;;26.40
28803;BMP280;15949;55.656;37.422;2022-08-06T17:07:13;99711.72;;;26.35
28803;BMP280;15949;55.656;37.422;2022-08-06T17:12:19;99714.47;;;26.14
28803;BMP280;15949;55.656;37.422;2022-08-06T17:17:25;99714.72;;;25.96
28803;BMP280;15949;55.656;37.422;2022-08-06T17:22:30;99720.44;;;25.84
28803;BMP280;15949;55.656;37.422;2022-08-06T17:27:37;99706.78;;;25.63
28803;BMP280;15949;55.656;37.422;2022-08-06T17:32:44;99706.44;;;25.46
28803;BMP280;15949;55.656;37.422;2022-08-06T17:37:51;99698.84;;;25.31
28803;BMP280;15949;55.656;37.422;2022-08-06T17:43:00;99709.56;;;25.16
28803;BMP280;15949;55.656;37.422;2022-08-06T17:48:06;99702.16;;;25.03
28803;BMP280;15949;55.656;37.422;2022-08-06T17:53:13;99705.22;;;24.87
28803;BMP280;15949;55.656;37.422;2022-08-06T17:58:18;99706.69;;;24.74
28803;BMP280;15949;55.656;37.422;2022-08-06T18:03:24;99709.13;;;24.65
28803;BMP280;15949;55.656;37.422;2022-08-06T18:08:30;99721.56;;;24.60
28803;BMP280;15949;55.656;37.422;2022-08-06T18:13:36;99720.75;;;24.52
28803;BMP280;15949;55.656;37.422;2022-08-06T18:18:41;99717.97;;;24.39
28803;BMP280;15949;55.656;37.422;2022-08-06T18:23:47;99712.16;;;24.35
28803;BMP280;15949;55.656;37.422;2022-08-06T18:28:53;99721.72;;;24.22
28803;BMP280;15949;55.656;37.422;2022-08-06T18:33:59;99720.00;;;24.06
28803;BMP280;15949;55.656;37.422;2022-08-06T18:39:04;99723.13;;;23.97
28803;BMP280;15949;55.656;37.422;2022-08-06T18:44:11;99713.53;;;23.96
28803;BMP280;15949;55.656;37.422;2022-08-06T18:49:19;99714.31;;;23.91
28803;BMP280;15949;55.656;37.422;2022-08-06T18:54:26;99702.97;;;23.87
28803;BMP280;15949;55.656;37.422;2022-08-06T18:59:32;99707.00;;;23.86
28803;BMP280;15949;55.656;37.422;2022-08-06T19:04:38;99709.88;;;23.75
28803;BMP280;15949;55.656;37.422;2022-08-06T19:09:43;99712.75;;;23.63
28803;BMP280;15949;55.656;37.422;2022-08-06T19:14:50;99707.47;;;23.52
28803;BMP280;15949;55.656;37.422;2022-08-06T19:19:55;99707.56;;;23.47
28803;BMP280;15949;55.656;37.422;2022-08-06T19:25:04;99701.28;;;23.33
28803;BMP280;15949;55.656;37.422;2022-08-06T19:30:10;99700.75;;;23.15
28803;BMP280;15949;55.656;37.422;2022-08-06T19:35:16;99694.13;;;23.11
28803;BMP280;15949;55.656;37.422;2022-08-06T19:40:22;99684.75;;;22.93
28803;BMP280;15949;55.656;37.422;2022-08-06T19:45:48;99688.31;;;22.82
28803;BMP280;15949;55.656;37.422;2022-08-06T19:50:54;99691.09;;;22.77
28803;BMP280;15949;55.656;37.422;2022-08-06T19:55:59;99691.94;;;22.66
28803;BMP280;15949;55.656;37.422;2022-08-06T20:01:05;99692.22;;;22.63
28803;BMP280;15949;55.656;37.422;2022-08-06T20:06:14;99693.44;;;22.61
28803;BMP280;15949;55.656;37.422;2022-08-06T20:11:19;99695.25;;;22.53
28803;BMP280;15949;55.656;37.422;2022-08-06T20:16:28;99692.53;;;22.53
28803;BMP280;15949;55.656;37.422;2022-08-06T20:21:33;99688.38;;;22.52
28803;BMP280;15949;55.656;37.422;2022-08-06T20:26:39;99698.31;;;22.44
28803;BMP280;15949;55.656;37.422;2022-08-06T20:31:45;99683.56;;;22.34
28803;BMP280;15949;55.656;37.422;2022-08-06T20:36:50;99679.53;;;22.22
28803;BMP280;15949;55.656;37.422;2022-08-06T20:41:56;99692.22;;;22.02
28803;BMP280;15949;55.656;37.422;2022-08-06T20:47:03;99691.94;;;21.76
28803;BMP280;15949;55.656;37.422;2022-08-06T20:52:08;99690.56;;;21.52
28803;BMP280;15949;55.656;37.422;2022-08-06T20:57:14;99683.47;;;21.44
28803;BMP280;15949;55.656;37.422;2022-08-06T21:02:20;99688.66;;;21.36
28803;BMP280;15949;55.656;37.422;2022-08-06T21:07:25;99686.97;;;21.33
28803;BMP280;15949;55.656;37.422;2022-08-06T21:12:32;99685.53;;;21.21
28803;BMP280;15949;55.656;37.422;2022-08-06T21:17:37;99677.72;;;21.00
28803;BMP280;15949;55.656;37.422;2022-08-06T21:22:43;99678.00;;;20.80
28803;BMP280;15949;55.656;37.422;2022-08-06T21:27:49;99680.25;;;20.70
28803;BMP280;15949;55.656;37.422;2022-08-06T21:32:54;99673.84;;;20.62
28803;BMP280;15949;55.656;37.422;2022-08-06T21:38:00;99672.59;;;20.46
28803;BMP280;15949;55.656;37.422;2022-08-06T21:43:05;99670.19;;;20.32
28803;BMP280;15949;55.656;37.422;2022-08-06T21:48:11;99674.13;;;20.25
28803;BMP280;15949;55.656;37.422;2022-08-06T21:53:17;99681.22;;;20.11
28803;BMP280;15949;55.656;37.422;2022-08-06T21:58:22;99676.31;;;19.93
28803;BMP280;15949;55.656;37.422;2022-08-06T22:03:28;99680.94;;;19.81
28803;BMP280;15949;55.656;37.422;2022-08-06T22:08:35;99686.03;;;19.68
28803;BMP280;15949;55.656;37.422;2022-08-06T22:13:41;99678.41;;;19.61
28803;BMP280;15949;55.656;37.422;2022-08-06T22:18:47;99678.19;;;19.59
28803;BMP280;15949;55.656;37.422;2022-08-06T22:23:55;99672.47;;;19.45
28803;BMP280;15949;55.656;37.422;2022-08-06T22:29:00;99672.91;;;19.38
28803;BMP280;15949;55.656;37.422;2022-08-06T22:34:08;99672.19;;;19.38
28803;BMP280;15949;55.656;37.422;2022-08-06T22:39:14;99671.91;;;19.30
28803;BMP280;15949;55.656;37.422;2022-08-06T22:44:19;99667.72;;;19.24
28803;BMP280;15949;55.656;37.422;2022-08-06T22:49:25;99664.47;;;19.14
28803;BMP280;15949;55.656;37.422;2022-08-06T22:54:31;99661.75;;;19.14
28803;BMP280;15949;55.656;37.422;2022-08-06T22:59:37;99663.47;;;19.17
28803;BMP280;15949;55.656;37.422;2022-08-06T23:04:43;99664.78;;;19.27
28803;BMP280;15949;55.656;37.422;2022-08-06T23:09:49;99653.25;;;19.32
28803;BMP280;15949;55.656;37.422;2022-08-06T23:14:54;99660.66;;;19.37
28803;BMP280;15949;55.656;37.422;2022-08-06T23:20:01;99652.53;;;19.37
28803;BMP280;15949;55.656;37.422;2022-08-06T23:25:09;99665.53;;;19.33
28803;BMP280;15949;55.656;37.422;2022-08-06T23:30:15;99662.81;;;19.28
28803;BMP280;15949;55.656;37.422;2022-08-06T23:35:21;99655.91;;;19.15
28803;BMP280;15949;55.656;37.422;2022-08-06T23:40:27;99659.06;;;19.14
28803;BMP280;15949;55.656;37.422;2022-08-06T23:45:32;99649.75;;;19.15
28803;BMP280;15949;55.656;37.422;2022-08-06T23:50:38;99651.22;;;19.16
28803;BMP280;15949;55.656;37.422;2022-08-06T23:55:44;99654.13;;;19.12
